Time;durP1;ratioP1;P1;durP2;ratioP2;P2;SDS_P1;SDS_P2;PMS_P1;PMS_P2;Temp;Humidity;BMP_temperature;BMP_pressure;BME280_temperature;BME280_humidity;BME280_pressure;Samples;Min_cycle;Max_cycle;Signal;HPM_P1;HPM_P2
2022/09/04 00:01:24;;;;;;;6.80;4.53;;;18.00;1.00;;;;;;5012448;28;20958;-67
2022/09/04 00:03:59;;;;;;;7.73;4.60;;;18.00;1.00;;;;;;5012642;28;20435;-67
2022/09/04 00:06:32;;;;;;;8.67;4.83;;;18.00;1.00;;;;;;5012284;28;20398;-67
2022/09/04 00:09:17;;;;;;;9.40;4.77;;;18.00;1.00;;;;;;5012049;28;20455;-67
2022/09/04 00:11:54;;;;;;;5.60;5.03;;;18.00;1.00;;;;;;5012288;28;20439;-67
2022/09/04 00:14:29;;;;;;;14.20;5.00;;;18.00;1.00;;;;;;5011640;28;20395;-67
2022/09/04 00:17:07;;;;;;;9.07;6.27;;;17.90;1.00;;;;;;5012341;28;20441;-67
2022/09/04 00:19:43;;;;;;;6.80;5.87;;;17.90;1.00;;;;;;5012118;28;20403;-67
2022/09/04 00:22:30;;;;;;;7.23;4.93;;;17.90;1.00;;;;;;5012170;28;20426;-67
2022/09/04 00:25:24;;;;;;;6.43;5.27;;;17.90;1.00;;;;;;5012521;28;20404;-67
2022/09/04 00:27:59;;;;;;;7.77;5.33;;;17.90;1.00;;;;;;4992472;28;20485;-66
2022/09/04 00:30:25;;;;;;;7.17;5.80;;;17.80;1.00;;;;;;5012139;28;20398;-67
2022/09/04 00:33:20;;;;;;;6.77;5.20;;;17.90;1.00;;;;;;5011748;28;20454;-67
2022/09/04 00:35:54;;;;;;;8.10;5.30;;;17.90;99.90;;;;;;4995780;28;20267;-67
2022/09/04 00:38:25;;;;;;;12.20;5.50;;;17.90;99.90;;;;;;5011928;28;20427;-67
2022/09/04 00:41:08;;;;;;;10.10;5.90;;;17.90;99.90;;;;;;5012046;28;20450;-67
2022/09/04 00:44:11;;;;;;;8.50;4.50;;;17.80;99.90;;;;;;5011781;28;20431;-67
2022/09/04 00:46:57;;;;;;;6.50;4.60;;;17.70;99.90;;;;;;5012112;28;20395;-67
2022/09/04 00:49:48;;;;;;;5.80;5.20;;;17.60;1.00;;;;;;4990405;28;20493;-67
2022/09/04 00:52:33;;;;;;;6.40;4.73;;;17.60;99.90;;;;;;5011376;28;20442;-67
2022/09/04 00:55:15;;;;;;;8.53;5.07;;;17.60;99.90;;;;;;5011536;28;20913;-67
2022/09/04 00:58:05;;;;;;;7.70;5.30;;;17.60;99.90;;;;;;5011351;28;20396;-67
2022/09/04 01:00:31;;;;;;;6.07;4.80;;;17.60;99.90;;;;;;5011605;28;20506;-67
2022/09/04 01:03:06;;;;;;;5.10;4.60;;;17.50;99.90;;;;;;5011441;28;20967;-67
2022/09/04 01:06:00;;;;;;;5.77;4.97;;;17.50;99.90;;;;;;5011716;28;20230;-67
2022/09/04 01:08:58;;;;;;;7.33;4.47;;;17.40;99.90;;;;;;5011084;28;20824;-67
2022/09/04 01:11:30;;;;;;;7.17;4.60;;;17.40;99.90;;;;;;5011276;28;20593;-67
2022/09/04 01:14:28;;;;;;;5.37;4.60;;;17.40;1.00;;;;;;5011085;28;20419;-67
2022/09/04 01:17:26;;;;;;;6.20;4.67;;;17.40;1.00;;;;;;5011189;28;20466;-67
2022/09/04 01:20:08;;;;;;;6.30;5.00;;;17.30;99.90;;;;;;5011347;28;20862;-67
2022/09/04 01:23:12;;;;;;;6.40;5.00;;;17.20;1.00;;;;;;5011034;28;20419;-67
2022/09/04 01:25:46;;;;;;;7.43;4.97;;;17.10;1.00;;;;;;5010452;28;20506;-66
2022/09/04 01:28:40;;;;;;;5.67;4.57;;;17.20;1.00;;;;;;5010884;28;20453;-66
2022/09/04 01:31:37;;;;;;;6.10;5.50;;;17.30;1.00;;;;;;5003752;28;20430;-67
2022/09/04 01:34:26;;;;;;;7.07;5.67;;;17.30;1.00;;;;;;5011025;28;20593;-66
2022/09/04 01:37:29;;;;;;;10.50;5.50;;;17.30;1.00;;;;;;5010957;28;20498;-66
2022/09/04 01:40:14;;;;;;;10.73;6.70;;;17.30;1.00;;;;;;5011017;28;20426;-67
2022/09/04 01:43:01;;;;;;;8.40;5.33;;;17.30;1.00;;;;;;4989890;28;20426;-64
2022/09/04 01:45:51;;;;;;;9.70;5.37;;;17.30;1.00;;;;;;5011025;28;20442;-66
2022/09/04 01:48:27;;;;;;;10.93;5.60;;;17.30;1.00;;;;;;5010766;28;20857;-67
2022/09/04 01:51:01;;;;;;;10.47;6.47;;;17.20;99.90;;;;;;5010795;28;20391;-67
2022/09/04 01:53:29;;;;;;;6.50;5.83;;;17.20;99.90;;;;;;5011149;28;20584;-67
2022/09/04 01:56:56;;;;;;;6.57;5.70;;;17.10;1.00;;;;;;5010897;28;20493;-67
2022/09/04 01:59:38;;;;;;;9.47;5.83;;;17.10;1.00;;;;;;4979709;28;20415;-67
2022/09/04 02:02:12;;;;;;;25.27;5.87;;;17.10;1.00;;;;;;5010650;28;20582;-67
2022/09/04 02:05:02;;;;;;;9.40;6.30;;;17.00;1.00;;;;;;5010746;28;20390;-67
2022/09/04 02:07:53;;;;;;;9.50;6.07;;;17.00;1.00;;;;;;5010740;28;20486;-67
2022/09/04 02:10:29;;;;;;;18.50;6.27;;;17.00;1.00;;;;;;5010704;28;20406;-67
2022/09/04 02:13:01;;;;;;;7.03;6.23;;;17.10;1.00;;;;;;5010612;28;20438;-67
2022/09/04 02:15:54;;;;;;;7.20;5.47;;;17.10;1.00;;;;;;5010822;28;20422;-67
2022/09/04 02:18:43;;;;;;;6.70;4.30;;;17.00;1.00;;;;;;5010561;28;20786;-67
2022/09/04 02:21:17;;;;;;;7.23;6.53;;;17.00;1.00;;;;;;5010591;28;20402;-67
2022/09/04 02:23:59;;;;;;;9.50;5.97;;;17.00;1.00;;;;;;5010652;28;20422;-66
2022/09/04 02:26:51;;;;;;;6.80;5.80;;;16.90;1.00;;;;;;5010946;28;20394;-67
2022/09/04 02:29:20;;;;;;;6.33;4.90;;;16.90;1.00;;;;;;5010650;28;20439;-66
2022/09/04 02:32:24;;;;;;;4.83;4.37;;;16.90;1.00;;;;;;5010993;28;20407;-66
2022/09/04 02:34:56;;;;;;;5.70;4.53;;;17.00;1.00;;;;;;5010876;28;20410;-67
2022/09/04 02:37:24;;;;;;;5.80;4.90;;;16.90;1.00;;;;;;5013157;28;20427;-66
2022/09/04 02:40:02;;;;;;;4.80;4.30;;;16.90;1.00;;;;;;5013838;28;20430;-66
2022/09/04 02:42:46;;;;;;;5.00;4.60;;;17.00;99.90;;;;;;5013815;28;20411;-67
2022/09/04 02:45:35;;;;;;;5.50;5.00;;;16.90;1.00;;;;;;5013816;28;20421;-65
2022/09/04 02:48:18;;;;;;;11.77;5.53;;;16.80;1.00;;;;;;5013618;28;20976;-66
2022/09/04 02:51:19;;;;;;;6.30;5.20;;;16.90;99.90;;;;;;5013768;28;20957;-66
2022/09/04 02:54:13;;;;;;;8.80;4.87;;;16.90;99.90;;;;;;5013687;28;20423;-66
2022/09/04 02:57:08;;;;;;;6.40;5.10;;;16.80;99.90;;;;;;5013643;28;20427;-66
2022/09/04 02:59:49;;;;;;;6.10;5.13;;;16.70;1.00;;;;;;5013485;28;20406;-66
2022/09/04 03:02:32;;;;;;;6.60;5.30;;;16.60;1.00;;;;;;5013534;28;20427;-66
2022/09/04 03:05:11;;;;;;;4.77;4.27;;;16.60;1.00;;;;;;5013474;28;20442;-66
2022/09/04 03:07:50;;;;;;;4.83;4.33;;;16.50;1.00;;;;;;5013191;28;20413;-67
2022/09/04 03:10:18;;;;;;;7.33;4.40;;;16.30;1.00;;;;;;5013153;28;20403;-66
2022/09/04 03:12:50;;;;;;;10.43;5.47;;;16.20;1.00;;;;;;5013326;28;20431;-66
2022/09/04 03:15:35;;;;;;;4.80;4.30;;;16.20;1.00;;;;;;5013532;28;20916;-66
2022/09/04 03:18:09;;;;;;;5.40;4.90;;;16.10;1.00;;;;;;5013053;28;20903;-66
2022/09/04 03:20:56;;;;;;;4.63;4.13;;;16.00;1.00;;;;;;5013281;28;20498;-66
2022/09/04 03:23:45;;;;;;;6.97;5.13;;;16.10;1.00;;;;;;5013400;28;20930;-66
2022/09/04 03:26:32;;;;;;;5.53;4.90;;;16.10;1.00;;;;;;5013106;28;20403;-66
2022/09/04 03:29:31;;;;;;;6.93;5.97;;;16.00;1.00;;;;;;5012722;28;20469;-66
2022/09/04 03:32:14;;;;;;;7.23;5.23;;;16.00;1.00;;;;;;4976343;28;20813;-66
2022/09/04 03:34:48;;;;;;;6.47;5.87;;;16.10;1.00;;;;;;5012984;28;20415;-67
2022/09/04 03:37:38;;;;;;;7.07;5.30;;;16.00;1.00;;;;;;5012909;28;20434;-67
2022/09/04 03:40:25;;;;;;;15.80;5.60;;;16.10;1.00;;;;;;5012863;28;20399;-67
2022/09/04 03:43:29;;;;;;;8.87;6.00;;;16.20;1.00;;;;;;5013260;28;20785;-66
2022/09/04 03:46:16;;;;;;;6.53;5.90;;;16.20;1.00;;;;;;5017117;28;20411;-67
2022/09/04 03:49:00;;;;;;;7.20;5.53;;;16.30;1.00;;;;;;5017793;28;20477;-67
2022/09/04 03:51:35;;;;;;;5.50;5.00;;;16.30;1.00;;;;;;5018108;28;20407;-66
2022/09/04 03:54:11;;;;;;;7.60;6.10;;;16.20;1.00;;;;;;5012436;28;21034;-67
2022/09/04 03:56:42;;;;;;;8.23;6.03;;;16.10;1.00;;;;;;5012614;28;20438;-67
2022/09/04 03:59:33;;;;;;;15.93;6.80;;;16.10;1.00;;;;;;5012102;28;20425;-66
2022/09/04 04:01:59;;;;;;;16.37;7.70;;;16.10;1.00;;;;;;4991249;28;20462;-66
2022/09/04 04:05:00;;;;;;;7.40;5.53;;;16.20;1.00;;;;;;5012294;28;20451;-66
2022/09/04 04:07:45;;;;;;;8.60;5.93;;;16.10;1.00;;;;;;5012191;28;20176;-65
2022/09/04 04:10:34;;;;;;;7.83;7.03;;;16.10;1.00;;;;;;5012162;28;20930;-67
2022/09/04 04:13:25;;;;;;;9.20;6.47;;;16.20;1.00;;;;;;5012351;28;20443;-65
2022/09/04 04:16:12;;;;;;;10.97;6.60;;;15.90;1.00;;;;;;5012230;28;20495;-67
2022/09/04 04:18:46;;;;;;;24.50;6.93;;;16.10;1.00;;;;;;5011877;28;20399;-66
2022/09/04 04:21:56;;;;;;;15.70;7.30;;;16.10;1.00;;;;;;5012169;28;20922;-66
2022/09/04 04:24:43;;;;;;;7.70;6.90;;;16.10;1.00;;;;;;5012308;28;20398;-66
2022/09/04 04:27:34;;;;;;;11.83;6.93;;;16.10;1.00;;;;;;5011912;28;20407;-66
2022/09/04 04:30:16;;;;;;;17.87;6.80;;;16.10;1.00;;;;;;5008996;28;20415;-64
2022/09/04 04:32:59;;;;;;;26.00;6.70;;;16.10;1.00;;;;;;5011618;28;21006;-65
2022/09/04 04:35:53;;;;;;;23.40;8.53;;;16.00;1.00;;;;;;5012283;28;20399;-65
2022/09/04 04:38:26;;;;;;;14.57;7.73;;;16.00;1.00;;;;;;5011911;28;20482;-66
2022/09/04 04:41:24;;;;;;;13.60;7.30;;;15.90;1.00;;;;;;5011892;28;20411;-66
2022/09/04 04:43:56;;;;;;;33.13;9.60;;;15.90;1.00;;;;;;4989334;28;20438;-65
2022/09/04 04:46:35;;;;;;;20.57;7.73;;;16.00;1.00;;;;;;5011844;28;20434;-66
2022/09/04 04:49:21;;;;;;;20.63;7.70;;;16.00;1.00;;;;;;5011587;28;20486;-66
2022/09/04 04:52:03;;;;;;;22.97;8.63;;;16.10;1.00;;;;;;5012150;28;20485;-67
2022/09/04 04:54:48;;;;;;;17.37;8.00;;;16.10;1.00;;;;;;5011844;28;20422;-67
2022/09/04 04:57:28;;;;;;;9.90;7.37;;;16.20;1.00;;;;;;5011689;28;20600;-67
2022/09/04 05:00:06;;;;;;;9.70;6.27;;;16.20;1.00;;;;;;5011278;28;20883;-67
2022/09/04 05:02:39;;;;;;;6.40;5.80;;;16.20;99.90;;;;;;5011480;28;20426;-67
2022/09/04 05:05:40;;;;;;;7.43;5.53;;;16.10;1.00;;;;;;5011715;28;20465;-65
2022/09/04 05:08:18;;;;;;;13.03;6.13;;;16.10;99.90;;;;;;5011073;28;20489;-65
2022/09/04 05:11:09;;;;;;;25.70;9.10;;;16.20;99.90;;;;;;5011482;28;20457;-67
2022/09/04 05:13:52;;;;;;;49.43;9.53;;;16.20;99.90;;;;;;5011682;28;20982;-66
2022/09/04 05:16:46;;;;;;;43.33;7.07;;;16.30;99.90;;;;;;5011367;28;20415;-65
2022/09/04 05:19:30;;;;;;;116.67;15.53;;;16.40;99.90;;;;;;5011191;28;20407;-64
2022/09/04 05:22:03;;;;;;;34.23;7.53;;;16.40;99.90;;;;;;5011238;28;20506;-65
2022/09/04 05:24:44;;;;;;;20.03;8.03;;;16.50;99.90;;;;;;5011311;28;20422;-65
2022/09/04 05:27:46;;;;;;;16.83;7.43;;;16.50;99.90;;;;;;5011096;28;20827;-65
2022/09/04 05:30:21;;;;;;;15.43;7.83;;;16.50;99.90;;;;;;5010828;28;20915;-64
2022/09/04 05:32:54;;;;;;;24.67;7.23;;;16.50;99.90;;;;;;5010948;28;20442;-65
2022/09/04 05:35:40;;;;;;;31.87;9.70;;;16.70;99.90;;;;;;5011238;28;20403;-66
2022/09/04 05:38:26;;;;;;;25.60;7.50;;;18.30;1.20;;;;;;5011081;28;20414;-66
2022/09/04 05:41:21;;;;;;;50.20;9.97;;;20.30;99.90;;;;;;5011034;28;20395;-65
2022/09/04 05:43:50;;;;;;;22.87;7.20;;;21.70;1.00;;;;;;5011141;28;20454;-65
2022/09/04 05:46:26;;;;;;;32.80;7.53;;;22.90;1.00;;;;;;5011149;28;20734;-66
2022/09/04 05:49:32;;;;;;;29.93;6.70;;;23.80;99.90;;;;;;5011086;28;20450;-66
2022/09/04 05:52:16;;;;;;;19.97;5.53;;;24.40;99.90;;;;;;5010942;28;20479;-67
2022/09/04 05:55:09;;;;;;;23.40;6.30;;;24.80;99.90;;;;;;5010986;28;20395;-65
2022/09/04 05:57:53;;;;;;;16.40;5.40;;;25.30;99.90;;;;;;5010852;28;20494;-66
2022/09/04 06:00:19;;;;;;;24.80;6.87;;;25.50;99.90;;;;;;5010801;28;20410;-66
2022/09/04 06:03:03;;;;;;;26.10;6.50;;;25.70;99.90;;;;;;5010897;28;20447;-65
2022/09/04 06:05:34;;;;;;;30.63;7.27;;;25.90;99.90;;;;;;5010865;28;20937;-67
2022/09/04 06:08:19;;;;;;;19.50;6.80;;;25.40;99.90;;;;;;5010857;28;20455;-66
2022/09/04 06:11:06;;;;;;;13.23;7.50;;;24.70;99.90;;;;;;5011695;28;20396;-66
2022/09/04 06:13:34;;;;;;;13.97;7.30;;;24.00;99.90;;;;;;5014336;28;20526;-67
2022/09/04 06:16:42;;;;;;;24.90;8.27;;;23.60;99.90;;;;;;5014160;28;20444;-67
2022/09/04 06:19:26;;;;;;;26.13;9.00;;;23.30;99.90;;;;;;5013966;28;20771;-66
2022/09/04 06:21:54;;;;;;;34.10;9.60;;;23.40;99.90;;;;;;5014527;28;20470;-65
2022/09/04 06:24:27;;;;;;;26.00;9.37;;;23.60;99.90;;;;;;5014716;28;20415;-67
2022/09/04 06:27:08;;;;;;;25.17;9.03;;;23.70;99.90;;;;;;5014410;28;20472;-65
2022/09/04 06:29:34;;;;;;;9.97;6.50;;;23.70;99.90;;;;;;5014311;28;20815;-66
2022/09/04 06:32:26;;;;;;;24.67;7.77;;;23.70;99.90;;;;;;5014275;28;20403;-66
2022/09/04 06:35:14;;;;;;;15.73;7.40;;;23.80;99.90;;;;;;5014533;28;20646;-65
2022/09/04 06:38:03;;;;;;;19.70;7.60;;;23.90;99.90;;;;;;5014183;28;20423;-66
2022/09/04 06:40:47;;;;;;;36.53;9.90;;;24.00;99.90;;;;;;5014182;28;20941;-66
2022/09/04 06:43:23;;;;;;;17.07;7.63;;;24.10;99.90;;;;;;5014252;28;20423;-66
2022/09/04 06:46:18;;;;;;;14.63;6.40;;;24.20;99.90;;;;;;5013974;28;20405;-67
2022/09/04 06:49:12;;;;;;;52.73;8.77;;;24.20;99.90;;;;;;5013645;28;20810;-66
2022/09/04 06:52:07;;;;;;;39.10;9.13;;;24.30;99.90;;;;;;5009119;28;20427;-66
2022/09/04 06:54:57;;;;;;;17.40;6.47;;;24.30;99.90;;;;;;5013768;28;20400;-66
2022/09/04 06:57:41;;;;;;;8.53;6.40;;;24.30;99.90;;;;;;5013789;28;20430;-65
2022/09/04 07:00:13;;;;;;;22.80;6.80;;;24.00;99.90;;;;;;5013560;28;20439;-66
2022/09/04 07:02:54;;;;;;;22.30;7.70;;;24.10;99.90;;;;;;5013180;28;20407;-66
2022/09/04 07:05:35;;;;;;;34.63;9.13;;;24.40;99.90;;;;;;5011796;28;20476;-65
2022/09/04 07:08:38;;;;;;;17.23;7.07;;;24.60;99.90;;;;;;5011212;28;20546;-66
2022/09/04 07:11:30;;;;;;;10.80;6.13;;;24.80;99.90;;;;;;5011553;28;20406;-67
2022/09/04 07:14:18;;;;;;;12.03;6.77;;;25.00;99.90;;;;;;5010665;28;20431;-66
2022/09/04 07:17:21;;;;;;;24.13;8.43;;;25.10;99.90;;;;;;5011108;28;20407;-65
2022/09/04 07:20:11;;;;;;;23.83;8.00;;;25.10;99.90;;;;;;5012178;28;20438;-66
2022/09/04 07:22:50;;;;;;;25.50;7.93;;;25.00;99.90;;;;;;5013310;28;20923;-66
2022/09/04 07:25:31;;;;;;;30.47;8.13;;;25.10;99.90;;;;;;5013100;28;20502;-65
2022/09/04 07:28:21;;;;;;;21.77;6.73;;;25.20;99.90;;;;;;5012687;28;20970;-65
2022/09/04 07:31:02;;;;;;;12.33;5.43;;;25.40;99.90;;;;;;5013309;28;20996;-66
2022/09/04 07:33:31;;;;;;;8.90;5.60;;;25.30;99.90;;;;;;5012535;28;20451;-66
2022/09/04 07:36:38;;;;;;;19.83;5.97;;;25.30;99.90;;;;;;5012885;28;20518;-66
2022/09/04 07:39:12;;;;;;;17.93;5.20;;;25.40;99.90;;;;;;5006779;28;20791;-65
2022/09/04 07:42:04;;;;;;;13.40;6.00;;;25.40;99.90;;;;;;5012773;28;20542;-65
2022/09/04 07:44:53;;;;;;;18.97;6.13;;;25.50;99.90;;;;;;5010920;28;20419;-66
2022/09/04 07:47:20;;;;;;;20.43;5.90;;;25.50;99.90;;;;;;5012554;28;20403;-66
2022/09/04 07:50:10;;;;;;;14.30;6.40;;;25.60;99.90;;;;;;5012360;28;20458;-66
2022/09/04 07:52:40;;;;;;;21.83;6.60;;;25.80;99.90;;;;;;5012599;28;20428;-66
2022/09/04 07:55:26;;;;;;;8.73;5.50;;;25.80;99.90;;;;;;5012495;28;20929;-66
2022/09/04 07:58:31;;;;;;;10.40;6.40;;;25.80;99.90;;;;;;5012326;28;20594;-66
2022/09/04 08:01:27;;;;;;;15.93;5.97;;;25.80;99.90;;;;;;4970766;28;20424;-67
2022/09/04 08:04:14;;;;;;;9.33;5.57;;;26.00;99.90;;;;;;4954433;28;20448;-66
2022/09/04 08:06:54;;;;;;;13.10;5.27;;;26.10;99.90;;;;;;5004592;28;20423;-66
2022/09/04 08:09:38;;;;;;;19.23;6.47;;;26.10;99.90;;;;;;5011961;28;20789;-65
2022/09/04 08:12:04;;;;;;;27.50;6.23;;;26.10;99.90;;;;;;5012087;28;20410;-66
2022/09/04 08:14:51;;;;;;;23.40;5.97;;;26.10;99.90;;;;;;5012384;28;20392;-67
2022/09/04 08:17:42;;;;;;;15.47;5.13;;;26.30;99.90;;;;;;5012027;28;20167;-67
2022/09/04 08:20:35;;;;;;;23.23;8.63;;;26.50;99.90;;;;;;5011973;28;20469;-67
2022/09/04 08:23:03;;;;;;;16.33;6.03;;;26.60;99.90;;;;;;5012002;28;20794;-66
2022/09/04 08:25:51;;;;;;;21.17;7.57;;;26.70;99.90;;;;;;5011971;28;20498;-65
2022/09/04 08:28:25;;;;;;;14.00;4.90;;;26.80;99.90;;;;;;5011622;28;20485;-66
2022/09/04 08:31:13;;;;;;;9.10;4.93;;;26.70;99.90;;;;;;5011921;28;20814;-67
2022/09/04 08:33:59;;;;;;;9.07;4.93;;;26.50;99.90;;;;;;5034253;22;20573;-65
2022/09/04 08:36:46;;;;;;;12.37;5.70;;;26.20;99.90;;;;;;5011515;28;20433;-66
2022/09/04 08:39:39;;;;;;;11.43;4.60;;;26.00;99.90;;;;;;5011446;28;20781;-63
2022/09/04 08:42:08;;;;;;;36.37;6.30;;;25.90;99.90;;;;;;5011613;28;20493;-65
2022/09/04 08:44:58;;;;;;;25.13;5.70;;;26.30;99.90;;;;;;5011659;28;20458;-66
2022/09/04 08:47:56;;;;;;;17.33;4.90;;;26.70;99.90;;;;;;5011553;28;20453;-64
2022/09/04 08:50:44;;;;;;;8.93;5.40;;;26.80;99.90;;;;;;5010202;28;20423;-66
2022/09/04 08:53:27;;;;;;;6.83;3.20;;;26.40;99.90;;;;;;5011298;28;20419;-65
2022/09/04 08:56:24;;;;;;;6.43;4.00;;;26.00;99.90;;;;;;5011520;28;20402;-65
2022/09/04 08:59:10;;;;;;;15.53;4.50;;;26.20;99.90;;;;;;5011388;28;20407;-64
2022/09/04 09:02:02;;;;;;;7.20;3.60;;;26.20;99.90;;;;;;5011477;28;20403;-60
2022/09/04 09:04:53;;;;;;;7.93;4.03;;;25.90;99.90;;;;;;5011419;28;20438;-65
2022/09/04 09:07:49;;;;;;;18.13;4.63;;;26.20;99.90;;;;;;5010906;28;20442;-65
2022/09/04 09:10:36;;;;;;;6.10;3.30;;;26.70;99.90;;;;;;5011282;28;20399;-66
2022/09/04 09:13:27;;;;;;;9.37;3.13;;;26.20;99.90;;;;;;5011077;28;20789;-65
2022/09/04 09:16:35;;;;;;;6.93;3.13;;;25.30;99.90;;;;;;5011405;28;20391;-64
2022/09/04 09:19:22;;;;;;;3.80;3.13;;;25.70;99.90;;;;;;5009770;28;20408;-65
2022/09/04 09:22:17;;;;;;;8.60;3.40;;;25.30;99.90;;;;;;5011297;28;20497;-65
2022/09/04 09:24:48;;;;;;;11.70;3.60;;;25.80;99.90;;;;;;5011586;28;20510;-65
2022/09/04 09:27:41;;;;;;;9.00;3.33;;;26.20;99.90;;;;;;5010845;28;20408;-66
2022/09/04 09:30:21;;;;;;;15.70;3.50;;;25.70;99.90;;;;;;5011050;28;20411;-64
2022/09/04 09:32:53;;;;;;;9.83;3.20;;;25.80;99.90;;;;;;5011177;28;20403;-68
2022/09/04 09:35:40;;;;;;;3.53;3.23;;;26.30;99.90;;;;;;5010935;28;20403;-68
2022/09/04 09:38:43;;;;;;;8.67;3.13;;;26.30;99.90;;;;;;5011248;28;20407;-65
2022/09/04 09:41:30;;;;;;;47.57;7.87;;;26.40;99.90;;;;;;5010700;28;20399;-67
2022/09/04 09:44:14;;;;;;;9.80;3.57;;;26.70;99.90;;;;;;5008885;28;20506;-64
2022/09/04 09:47:13;;;;;;;11.37;3.37;;;26.90;99.90;;;;;;5010807;28;20412;-64
2022/09/04 09:50:13;;;;;;;12.97;3.53;;;27.00;99.90;;;;;;5011270;28;20458;-65
2022/09/04 09:53:14;;;;;;;36.90;5.87;;;27.10;99.90;;;;;;5012704;28;20421;-64
2022/09/04 09:56:21;;;;;;;14.80;4.77;;;26.80;99.90;;;;;;5012535;28;20390;-67
2022/09/04 09:59:08;;;;;;;35.40;5.97;;;26.20;99.90;;;;;;4990088;28;20410;-65
2022/09/04 10:01:48;;;;;;;5.87;3.13;;;26.20;99.90;;;;;;5013239;28;20418;-66
2022/09/04 10:04:48;;;;;;;78.13;9.10;;;25.40;99.90;;;;;;5012574;28;21026;-67
2022/09/04 10:07:50;;;;;;;21.20;5.53;;;26.00;99.90;;;;;;5010642;28;20412;-68
2022/09/04 10:10:37;;;;;;;11.60;4.07;;;26.40;99.90;;;;;;5011010;28;20442;-66
2022/09/04 10:13:33;;;;;;;39.10;7.03;;;26.30;99.90;;;;;;5012180;28;20474;-63
2022/09/04 10:16:11;;;;;;;32.33;4.80;;;26.60;99.90;;;;;;5012898;28;20399;-64
2022/09/04 10:18:59;;;;;;;4.73;2.90;;;26.40;99.90;;;;;;5011992;28;20882;-62
2022/09/04 10:21:49;;;;;;;4.27;2.57;;;25.60;99.90;;;;;;5012226;28;20898;-64
2022/09/04 10:24:34;;;;;;;3.90;2.83;;;25.80;99.90;;;;;;5012429;28;20507;-63
2022/09/04 10:27:28;;;;;;;3.80;2.50;;;26.10;99.90;;;;;;5012193;28;20406;-63
2022/09/04 10:30:15;;;;;;;5.63;2.70;;;26.00;99.90;;;;;;5011899;28;20557;-64
2022/09/04 10:33:08;;;;;;;7.47;3.20;;;26.30;99.90;;;;;;5010883;28;20465;-62
2022/09/04 10:35:56;;;;;;;4.57;3.00;;;26.70;99.90;;;;;;5012322;28;20422;-64
2022/09/04 10:38:33;;;;;;;26.97;5.33;;;26.80;99.90;;;;;;5012204;28;20712;-62
2022/09/04 10:41:34;;;;;;;9.43;3.50;;;27.20;99.90;;;;;;5011903;28;20395;-63
2022/09/04 10:44:37;;;;;;;3.77;2.10;;;27.10;99.90;;;;;;5011754;28;20411;-64
2022/09/04 10:47:36;;;;;;;17.40;3.97;;;26.20;99.90;;;;;;5011853;28;20402;-63
2022/09/04 10:50:24;;;;;;;6.40;3.13;;;26.40;99.90;;;;;;5011533;28;21157;-62
2022/09/04 10:53:05;;;;;;;17.43;3.77;;;26.40;99.90;;;;;;5010451;28;20411;-62
2022/09/04 10:55:45;;;;;;;9.37;3.43;;;26.10;99.90;;;;;;5011332;28;20399;-65
2022/09/04 10:58:38;;;;;;;3.50;2.20;;;25.70;99.90;;;;;;5010723;28;20408;-65
2022/09/04 11:01:28;;;;;;;2.83;2.10;;;25.10;99.90;;;;;;5010297;28;20411;-64
2022/09/04 11:04:17;;;;;;;3.97;2.23;;;25.10;99.90;;;;;;5009617;28;20431;-60
2022/09/04 11:07:01;;;;;;;3.90;2.20;;;24.90;99.90;;;;;;5011365;28;20442;-62
2022/09/04 11:09:59;;;;;;;4.43;3.13;;;25.10;99.90;;;;;;5009527;28;20538;-62
2022/09/04 11:12:52;;;;;;;5.57;2.77;;;25.10;99.90;;;;;;4988746;28;20411;-62
2022/09/04 11:15:36;;;;;;;6.43;2.40;;;25.00;99.90;;;;;;5011669;28;20979;-65
2022/09/04 11:18:21;;;;;;;5.37;2.93;;;24.70;99.90;;;;;;5011132;28;21049;-62
2022/09/04 11:21:24;;;;;;;2.63;2.43;;;24.80;99.90;;;;;;5012084;28;20485;-64
2022/09/04 11:24:02;;;;;;;10.70;3.40;;;24.80;99.90;;;;;;5011428;28;20433;-64
2022/09/04 11:27:08;;;;;;;21.77;4.47;;;25.10;99.90;;;;;;5011589;28;20411;-64
2022/09/04 11:29:58;;;;;;;4.80;2.80;;;25.20;99.90;;;;;;5009405;28;21238;-61
2022/09/04 11:32:57;;;;;;;14.13;3.40;;;25.30;99.90;;;;;;5010064;28;20438;-64
2022/09/04 11:35:44;;;;;;;13.47;3.30;;;25.30;99.90;;;;;;5010509;28;20418;-66
2022/09/04 11:38:22;;;;;;;6.27;2.87;;;25.40;99.90;;;;;;5010727;28;20403;-63
2022/09/04 11:41:42;;;;;;;35.77;5.90;;;25.50;99.90;;;;;;5010476;28;20404;-69
2022/09/04 11:44:31;;;;;;;11.53;3.33;;;25.50;99.90;;;;;;4968957;28;20455;-63
2022/09/04 11:47:23;;;;;;;4.03;2.77;;;25.30;99.90;;;;;;4969329;28;20484;-64
2022/09/04 11:49:54;;;;;;;3.87;2.87;;;25.30;99.90;;;;;;5006671;28;20951;-63
2022/09/04 11:52:27;;;;;;;22.10;5.43;;;25.40;99.90;;;;;;5010346;28;20395;-62
2022/09/04 11:55:08;;;;;;;9.60;3.07;;;25.40;99.90;;;;;;5010579;28;20510;-64
2022/09/04 11:57:49;;;;;;;6.30;2.93;;;25.20;99.90;;;;;;5010269;28;20399;-66
2022/09/04 12:00:16;;;;;;;5.23;2.60;;;25.20;99.90;;;;;;5010067;28;20418;-63
2022/09/04 12:03:13;;;;;;;4.37;2.30;;;25.30;99.90;;;;;;5009939;28;20504;-64
2022/09/04 12:05:57;;;;;;;3.17;2.00;;;25.40;99.90;;;;;;5010589;28;20402;-64
2022/09/04 12:08:42;;;;;;;10.53;2.70;;;25.40;99.90;;;;;;5007757;28;21035;-65
2022/09/04 12:11:20;;;;;;;21.43;4.40;;;25.40;99.90;;;;;;5010244;28;20395;-63
2022/09/04 12:13:58;;;;;;;31.60;5.40;;;25.30;99.90;;;;;;5010253;28;20843;-62
2022/09/04 12:17:07;;;;;;;10.73;3.60;;;25.20;99.90;;;;;;5012351;28;20402;-64
2022/09/04 12:19:51;;;;;;;10.50;3.57;;;25.20;99.90;;;;;;5012004;28;20418;-64
2022/09/04 12:22:50;;;;;;;17.67;3.50;;;25.10;99.90;;;;;;5011954;28;20403;-62
2022/09/04 12:25:44;;;;;;;15.57;3.40;;;25.20;99.90;;;;;;5012399;28;20395;-65
2022/09/04 12:28:36;;;;;;;3.97;2.07;;;25.40;99.90;;;;;;5012428;28;20522;-63
2022/09/04 12:31:20;;;;;;;3.73;2.23;;;25.60;99.90;;;;;;5012187;28;20391;-64
2022/09/04 12:34:07;;;;;;;3.97;2.53;;;25.70;99.90;;;;;;5011625;28;21030;-63
2022/09/04 12:36:42;;;;;;;9.80;2.90;;;25.60;99.90;;;;;;5012189;28;20427;-65
2022/09/04 12:39:35;;;;;;;10.50;3.10;;;25.60;99.90;;;;;;5011683;28;20420;-63
2022/09/04 12:42:38;;;;;;;3.77;2.40;;;25.50;99.90;;;;;;5011615;28;20499;-65
2022/09/04 12:45:43;;;;;;;7.70;2.17;;;25.40;99.90;;;;;;5009508;28;20442;-63
2022/09/04 12:48:40;;;;;;;6.93;2.33;;;25.50;99.90;;;;;;4995674;28;20851;-64
2022/09/04 12:51:08;;;;;;;10.93;3.10;;;25.60;99.90;;;;;;5011461;28;20429;-64
2022/09/04 12:53:48;;;;;;;60.07;7.90;;;25.50;99.90;;;;;;5011410;28;20423;-65
2022/09/04 12:56:44;;;;;;;100.97;10.20;;;25.50;99.90;;;;;;5011560;28;20403;-67
2022/09/04 12:59:28;;;;;;;50.20;6.00;;;25.40;99.90;;;;;;5011316;28;20418;-66
2022/09/04 13:02:23;;;;;;;23.27;4.17;;;25.40;99.90;;;;;;5011323;28;20413;-62
2022/09/04 13:04:58;;;;;;;28.03;4.77;;;25.40;99.90;;;;;;5011293;28;20477;-63
2022/09/04 13:07:35;;;;;;;77.13;7.50;;;25.40;99.90;;;;;;5012811;28;20474;-64
2022/09/04 13:10:20;;;;;;;98.97;13.37;;;25.50;99.90;;;;;;5011852;28;20455;-65
2022/09/04 13:13:09;;;;;;;40.20;5.77;;;25.50;99.90;;;;;;5011894;28;20402;-64
2022/09/04 13:16:10;;;;;;;33.63;5.30;;;25.70;99.90;;;;;;5011130;28;20738;-63
2022/09/04 13:19:01;;;;;;;181.93;19.17;;;25.80;99.90;;;;;;5011424;28;20481;-65
2022/09/04 13:21:47;;;;;;;34.33;5.30;;;25.80;99.90;;;;;;5011747;28;20403;-66
2022/09/04 13:24:34;;;;;;;84.97;10.20;;;25.90;99.90;;;;;;5010951;28;20442;-66
2022/09/04 13:27:27;;;;;;;43.00;5.40;;;26.00;99.90;;;;;;5011046;28;20396;-66
2022/09/04 13:30:07;;;;;;;23.90;4.23;;;25.90;99.90;;;;;;5011215;28;20487;-65
2022/09/04 13:33:16;;;;;;;17.47;3.27;;;25.90;99.90;;;;;;5011585;28;20445;-67
2022/09/04 13:36:00;;;;;;;10.00;2.60;;;25.90;99.90;;;;;;5010762;28;20461;-66
2022/09/04 13:38:47;;;;;;;24.23;5.00;;;25.70;99.90;;;;;;5010593;28;20494;-66
2022/09/04 13:41:41;;;;;;;35.77;4.17;;;25.50;99.90;;;;;;5010642;28;20407;-66
2022/09/04 13:44:29;;;;;;;15.90;3.27;;;25.50;99.90;;;;;;5011496;28;20787;-66
2022/09/04 13:47:03;;;;;;;12.07;3.30;;;25.40;99.90;;;;;;5011989;28;20410;-66
2022/09/04 13:49:47;;;;;;;2.50;1.90;;;25.60;99.90;;;;;;5009544;28;20462;-66
2022/09/04 13:52:26;;;;;;;4.27;2.20;;;25.50;99.90;;;;;;5011295;28;20719;-65
2022/09/04 13:55:21;;;;;;;6.60;2.57;;;25.30;99.90;;;;;;5010432;28;20838;-64
2022/09/04 13:57:59;;;;;;;12.20;3.07;;;25.20;99.90;;;;;;5005144;28;20506;-65
2022/09/04 14:00:30;;;;;;;4.10;2.33;;;25.30;99.90;;;;;;5010829;28;20817;-65
2022/09/04 14:03:06;;;;;;;44.03;6.63;;;25.30;99.90;;;;;;5010574;28;20461;-66
2022/09/04 14:05:33;;;;;;;4.70;1.90;;;25.40;99.90;;;;;;5009226;28;20410;-66
2022/09/04 14:08:04;;;;;;;6.03;2.43;;;25.40;99.90;;;;;;5010517;28;20442;-64
2022/09/04 14:11:15;;;;;;;3.30;2.10;;;25.30;99.90;;;;;;5010667;28;20411;-61
2022/09/04 14:14:09;;;;;;;18.50;3.67;;;25.30;99.90;;;;;;5008217;28;20518;-64
2022/09/04 14:16:38;;;;;;;11.30;2.30;;;25.20;99.90;;;;;;5010365;28;20404;-66
2022/09/04 14:19:41;;;;;;;5.30;2.50;;;25.20;99.90;;;;;;5010133;28;20490;-65
2022/09/04 14:22:17;;;;;;;3.80;2.40;;;25.10;99.90;;;;;;5010477;28;20443;-60